Time;durP1;ratioP1;P1;durP2;ratioP2;P2;SDS_P1;SDS_P2;PMS_P1;PMS_P2;Temp;Humidity;BMP_temperature;BMP_pressure;BME280_temperature;BME280_humidity;BME280_pressure;Samples;Min_cycle;Max_cycle;Signal;HPM_P1;HPM_P2
2023/12/17 00:02:05;;;;;;;6.03;5.35;;;;;;;7.30;100.00;103191.56;6066646;23;20406;-71
2023/12/17 00:04:31;;;;;;;5.97;5.22;;;;;;;7.69;100.00;103263.03;6035756;23;20023;-70
2023/12/17 00:06:59;;;;;;;9.80;4.82;;;;;;;7.64;100.00;103272.59;6070542;23;20030;-70
2023/12/17 00:09:25;;;;;;;5.70;5.22;;;;;;;7.29;100.00;103216.78;6040501;23;20584;-69
2023/12/17 00:11:52;;;;;;;5.22;4.93;;;;;;;7.64;100.00;103289.16;6065479;23;20606;-70
2023/12/17 00:14:18;;;;;;;6.80;6.20;;;;;;;7.58;100.00;103300.47;6041853;23;20041;-70
2023/12/17 00:16:44;;;;;;;4.43;4.13;;;;;;;7.59;100.00;103306.56;6077560;23;20364;-70
2023/12/17 00:19:11;;;;;;;4.90;4.50;;;;;;;7.36;100.00;103264.72;6052527;23;20469;-70
2023/12/17 00:21:37;;;;;;;6.60;6.00;;;;;;;7.65;100.00;103306.56;6071569;23;20039;-70
2023/12/17 00:24:04;;;;;;;7.45;4.32;;;;;;;7.74;100.00;103330.13;6047513;23;20022;-70
2023/12/17 00:26:31;;;;;;;6.53;6.05;;;;;;;7.74;100.00;103308.34;6056652;23;20087;-69
2023/12/17 00:28:58;;;;;;;5.18;4.80;;;;;;;7.67;100.00;103290.91;6046869;23;20093;-70
2023/12/17 00:31:24;;;;;;;5.22;4.90;;;;;;;7.45;100.00;103261.25;6068042;23;20021;-69
2023/12/17 00:33:51;;;;;;;6.30;5.22;;;;;;;7.68;100.00;103297.88;6042977;23;20347;-70
2023/12/17 00:36:17;;;;;;;11.57;6.97;;;;;;;7.35;100.00;103250.75;6071348;23;20470;-71
2023/12/17 00:38:44;;;;;;;5.32;4.85;;;;;;;7.64;100.00;103301.34;6046802;23;20084;-69
2023/12/17 00:41:10;;;;;;;5.43;5.07;;;;;;;7.70;100.00;103307.47;6069118;23;20030;-69
2023/12/17 00:43:37;;;;;;;6.43;5.82;;;;;;;7.70;100.00;103291.78;6044126;23;20092;-70
2023/12/17 00:46:03;;;;;;;5.25;4.90;;;;;;;7.65;100.00;103290.03;6059567;23;20432;-68
2023/12/17 00:48:31;;;;;;;6.32;5.72;;;;;;;7.64;100.00;103289.16;6041328;23;20110;-68
2023/12/17 00:50:57;;;;;;;5.00;4.68;;;;;;;6.76;100.00;103147.03;6049918;23;20186;-69
2023/12/17 00:53:24;;;;;;;9.48;5.57;;;;;;;7.58;100.00;103292.63;6049201;23;20030;-69
2023/12/17 00:55:51;;;;;;;5.97;5.25;;;;;;;7.57;100.00;103295.22;6077488;23;20081;-70
2023/12/17 00:58:17;;;;;;;7.15;6.55;;;;;;;7.58;100.00;103299.59;6014280;23;20035;-70
2023/12/17 01:00:43;;;;;;;8.35;4.63;;;;;;;7.22;100.00;103249.00;6065387;23;20027;-70
2023/12/17 01:03:21;;;;;;;24.58;5.75;;;;;;;7.37;100.00;103261.22;6016973;23;20030;-69
2023/12/17 01:05:47;;;;;;;6.88;5.90;;;;;;;7.57;100.00;103296.09;6072177;23;20022;-69
2023/12/17 01:08:14;;;;;;;7.68;6.95;;;;;;;7.58;100.00;103292.63;6042717;23;20014;-69
2023/12/17 01:10:41;;;;;;;5.82;5.22;;;;;;;7.10;100.00;103204.56;6079291;23;20091;-69
2023/12/17 01:13:07;;;;;;;6.90;5.53;;;;;;;7.58;100.00;103297.84;6051267;23;20465;-69
2023/12/17 01:15:34;;;;;;;7.03;5.72;;;;;;;7.52;100.00;103303.06;6078622;23;20100;-69
2023/12/17 01:18:00;;;;;;;5.70;5.15;;;;;;;7.54;100.00;103310.91;6056389;23;20018;-69
2023/12/17 01:20:27;;;;;;;5.13;4.72;;;;;;;7.39;100.00;103286.47;6076971;23;20089;-69
2023/12/17 01:22:53;;;;;;;7.68;6.95;;;;;;;7.55;100.00;103313.50;6054098;23;20022;-69
2023/12/17 01:25:20;;;;;;;5.60;5.20;;;;;;;6.99;100.00;103233.25;6033513;23;20270;-69
2023/12/17 01:27:46;;;;;;;5.75;5.28;;;;;;;7.49;100.00;103312.63;6079795;23;20026;-70
2023/12/17 01:30:13;;;;;;;8.48;7.65;;;;;;;7.10;100.00;103249.84;6057746;23;20089;-69
2023/12/17 01:32:39;;;;;;;5.35;5.00;;;;;;;7.54;100.00;103329.22;6081658;23;20068;-69
2023/12/17 01:35:08;;;;;;;14.20;6.00;;;;;;;6.85;100.00;103217.53;6057003;23;20038;-70
2023/12/17 01:37:34;;;;;;;5.55;5.10;;;;;;;7.49;100.00;103323.94;6091178;23;20033;-70
2023/12/17 01:40:01;;;;;;;4.68;4.35;;;;;;;7.52;100.00;103323.97;6029139;23;20692;-69
2023/12/17 01:42:27;;;;;;;5.93;5.43;;;;;;;7.53;100.00;103327.44;6080226;23;20058;-69
2023/12/17 01:44:54;;;;;;;4.60;4.40;;;;;;;7.50;100.00;103317.00;6051005;23;20190;-69
2023/12/17 01:47:21;;;;;;;7.47;5.93;;;;;;;6.38;100.00;103146.03;6081935;23;20442;-69
2023/12/17 01:49:48;;;;;;;6.15;5.70;;;;;;;7.16;100.00;103307.31;6055389;23;20231;-69
2023/12/17 01:52:15;;;;;;;6.82;6.10;;;;;;;6.93;100.00;103246.28;6064689;23;20033;-69
2023/12/17 01:54:42;;;;;;;6.97;5.70;;;;;;;6.92;100.00;103248.03;6052378;23;20030;-69
2023/12/17 01:57:08;;;;;;;7.65;6.22;;;;;;;7.43;100.00;103323.06;6070840;23;20356;-70
2023/12/17 01:59:35;;;;;;;5.07;4.70;;;;;;;7.40;100.00;103323.94;6046247;23;20294;-69
2023/12/17 02:02:03;;;;;;;7.35;5.05;;;;;;;7.41;100.00;103323.06;6067258;23;20464;-69
2023/12/17 02:04:29;;;;;;;5.68;4.88;;;;;;;7.41;100.00;103325.66;6023060;23;20019;-69
2023/12/17 02:06:56;;;;;;;5.72;5.20;;;;;;;7.38;100.00;103325.69;6081267;23;20025;-70
2023/12/17 02:09:22;;;;;;;5.63;5.13;;;;;;;7.41;100.00;103322.19;6050754;23;20027;-69
2023/12/17 02:11:49;;;;;;;6.18;5.18;;;;;;;6.85;100.00;103234.94;6082636;23;20555;-69
2023/12/17 02:14:15;;;;;;;7.70;7.13;;;;;;;7.37;100.00;103329.13;6033799;23;20027;-69
2023/12/17 02:16:42;;;;;;;6.10;5.65;;;;;;;7.17;100.00;103293.38;6053331;23;20029;-71
2023/12/17 02:19:08;;;;;;;5.50;5.10;;;;;;;7.38;100.00;103328.28;6037419;23;20042;-69
2023/12/17 02:21:35;;;;;;;5.32;5.00;;;;;;;7.38;100.00;103339.59;6044192;23;20458;-69
2023/12/17 02:24:02;;;;;;;5.90;5.35;;;;;;;7.41;100.00;103337.88;6058110;23;20025;-69
2023/12/17 02:26:30;;;;;;;8.93;7.07;;;;;;;7.40;100.00;103339.63;6076666;23;20036;-68
2023/12/17 02:28:56;;;;;;;6.00;5.50;;;;;;;7.38;100.00;103347.44;6053121;23;20034;-69
2023/12/17 02:31:23;;;;;;;5.60;5.10;;;;;;;7.32;100.00;103341.34;6079076;23;20018;-69
2023/12/17 02:33:49;;;;;;;5.07;4.72;;;;;;;7.32;100.00;103338.72;6035810;23;20027;-69
2023/12/17 02:36:16;;;;;;;7.40;6.90;;;;;;;7.26;100.00;103323.03;6070214;23;20258;-69
2023/12/17 02:38:42;;;;;;;5.57;4.82;;;;;;;7.37;100.00;103340.47;6043756;23;20192;-68
2023/12/17 02:41:09;;;;;;;5.63;5.32;;;;;;;6.30;100.00;103155.53;6065937;23;20030;-70
2023/12/17 02:43:35;;;;;;;5.30;4.90;;;;;;;7.32;100.00;103331.75;6048010;23;20532;-69
2023/12/17 02:46:02;;;;;;;5.95;5.22;;;;;;;7.14;100.00;103303.81;6072161;23;20049;-69
2023/12/17 02:48:28;;;;;;;5.75;5.35;;;;;;;6.69;100.00;103224.41;6051953;23;20018;-69
2023/12/17 02:50:55;;;;;;;5.70;5.30;;;;;;;7.14;100.00;103303.81;6076352;23;20257;-69
2023/12/17 02:53:21;;;;;;;6.22;5.57;;;;;;;7.33;100.00;103330.00;6053405;23;20050;-68
2023/12/17 02:55:48;;;;;;;5.15;4.75;;;;;;;7.32;100.00;103334.34;6079498;23;20432;-69
2023/12/17 02:58:15;;;;;;;6.65;6.05;;;;;;;7.34;100.00;103331.75;6043413;23;20528;-69
2023/12/17 03:00:42;;;;;;;5.80;5.40;;;;;;;6.96;100.00;103267.19;6081284;23;20042;-69
2023/12/17 03:03:08;;;;;;;5.50;5.10;;;;;;;7.34;100.00;103322.19;6046129;23;20477;-70
2023/12/17 03:05:34;;;;;;;8.27;5.95;;;;;;;6.94;100.00;103254.13;6081064;23;20116;-69
2023/12/17 03:08:01;;;;;;;5.70;5.22;;;;;;;6.96;100.00;103241.09;6051974;23;20036;-69
2023/12/17 03:10:27;;;;;;;6.20;5.70;;;;;;;7.18;100.00;103289.03;6046099;23;20089;-69
2023/12/17 03:12:56;;;;;;;6.32;5.80;;;;;;;7.30;100.00;103309.97;6054309;23;20151;-70
2023/12/17 03:15:23;;;;;;;8.40;5.60;;;;;;;7.32;100.00;103307.38;6047342;23;20379;-69
2023/12/17 03:17:49;;;;;;;8.02;4.40;;;;;;;6.90;100.00;103236.69;6080151;23;20485;-69
2023/12/17 03:20:16;;;;;;;7.45;6.88;;;;;;;7.28;100.00;103305.63;6045998;23;20069;-69
2023/12/17 03:22:43;;;;;;;4.75;4.55;;;;;;;7.28;100.00;103297.78;6079057;23;20018;-69
2023/12/17 03:25:09;;;;;;;8.18;5.75;;;;;;;6.88;100.00;103248.88;6051138;23;20548;-68
2023/12/17 03:31:16;;;;;;;7.38;6.88;;;;;;;7.22;100.00;103316.00;6045685;23;22831;-69
2023/12/17 03:34:17;;;;;;;7.18;5.22;;;;;;;7.25;100.00;103313.44;6076662;23;20050;-70
2023/12/17 03:44:25;;;;;;;6.35;5.95;;;;;;;7.26;100.00;103315.19;6042473;23;20105;-70
2023/12/17 03:46:51;;;;;;;5.20;4.80;;;;;;;7.22;100.00;103311.69;6079252;23;20014;-70
2023/12/17 03:49:18;;;;;;;5.50;5.10;;;;;;;6.79;100.00;103239.28;6044456;23;20026;-70
2023/12/17 03:51:45;;;;;;;5.72;5.28;;;;;;;7.21;100.00;103301.22;6078027;23;20148;-71
2023/12/17 03:54:11;;;;;;;7.03;6.53;;;;;;;7.25;100.00;103295.16;6048113;23;20017;-71
2023/12/17 03:56:44;;;;;;;4.90;4.63;;;;;;;7.21;100.00;103291.66;6075379;23;20169;-70
2023/12/17 03:59:11;;;;;;;6.00;5.50;;;;;;;6.81;100.00;103222.75;6048744;23;20050;-69
2023/12/17 04:01:44;;;;;;;6.90;6.32;;;;;;;7.13;100.00;103275.06;6072568;23;20114;-70
2023/12/17 04:04:11;;;;;;;6.15;5.85;;;;;;;7.13;100.00;103275.06;6048132;23;20030;-71
2023/12/17 04:06:40;;;;;;;6.53;4.68;;;;;;;7.10;100.00;103272.47;6076095;23;21645;-70
2023/12/17 04:09:09;;;;;;;5.90;5.38;;;;;;;7.12;100.00;103276.81;6046736;23;20191;-70
2023/12/17 04:11:35;;;;;;;4.60;4.38;;;;;;;7.17;100.00;103275.09;6079476;23;20081;-69
2023/12/17 04:14:02;;;;;;;5.22;4.80;;;;;;;7.18;100.00;103273.38;6045181;23;20024;-70
2023/12/17 04:16:28;;;;;;;5.68;5.30;;;;;;;6.73;100.00;103201.81;6078508;23;20201;-70
2023/12/17 04:18:55;;;;;;;5.75;5.32;;;;;;;7.11;100.00;103263.75;6045863;23;20022;-69
2023/12/17 04:21:24;;;;;;;5.68;4.82;;;;;;;7.13;100.00;103278.56;6075849;23;20029;-69
2023/12/17 04:23:51;;;;;;;4.93;4.45;;;;;;;7.11;100.00;103272.44;6051874;23;20084;-71
2023/12/17 04:26:18;;;;;;;5.90;5.30;;;;;;;7.17;100.00;103271.59;6049686;23;20519;-69
2023/12/17 04:28:44;;;;;;;4.60;4.30;;;;;;;7.14;100.00;103267.25;6052736;23;20053;-70
2023/12/17 04:31:11;;;;;;;5.95;5.47;;;;;;;7.03;100.00;103247.19;6075126;23;20246;-69
2023/12/17 04:33:37;;;;;;;4.63;4.32;;;;;;;7.06;100.00;103253.31;6051480;23;20054;-69
2023/12/17 04:36:08;;;;;;;4.95;4.65;;;;;;;6.73;100.00;103207.03;6076026;23;20022;-69
2023/12/17 04:38:34;;;;;;;6.20;4.97;;;;;;;7.13;100.00;103260.28;6047462;23;20396;-71
2023/12/17 04:41:01;;;;;;;4.38;4.13;;;;;;;7.12;100.00;103261.16;6079844;23;20029;-69
2023/12/17 04:43:28;;;;;;;5.22;4.93;;;;;;;6.67;100.00;103187.00;6046421;23;20475;-71
2023/12/17 04:45:55;;;;;;;4.97;4.68;;;;;;;6.50;100.00;103160.00;6068860;23;20017;-71
2023/12/17 04:48:23;;;;;;;6.68;6.28;;;;;;;7.08;100.00;103268.97;6022206;23;20202;-72
2023/12/17 04:50:49;;;;;;;5.07;4.75;;;;;;;6.90;100.00;103238.44;6084280;23;20065;-68
2023/12/17 04:53:16;;;;;;;5.38;4.88;;;;;;;7.05;100.00;103248.06;6054320;23;20073;-70
2023/12/17 04:55:43;;;;;;;4.63;4.43;;;;;;;6.27;100.00;103121.63;6079881;23;20154;-70
2023/12/17 04:58:09;;;;;;;6.25;5.85;;;;;;;6.94;100.00;103248.91;6046853;23;20470;-71
2023/12/17 05:00:36;;;;;;;5.63;5.22;;;;;;;7.02;100.00;103256.78;6078888;23;20249;-69
2023/12/17 05:03:04;;;;;;;5.05;4.47;;;;;;;6.86;100.00;103218.44;6050336;23;20351;-68
2023/12/17 05:05:35;;;;;;;5.43;5.03;;;;;;;6.81;100.00;103207.94;6084374;23;20030;-69
2023/12/17 05:08:02;;;;;;;5.43;5.03;;;;;;;7.05;100.00;103253.28;6054133;23;20262;-68
2023/12/17 05:10:28;;;;;;;5.50;4.97;;;;;;;7.09;100.00;103249.81;6083323;23;20201;-68
2023/12/17 05:12:55;;;;;;;5.45;4.15;;;;;;;7.09;100.00;103242.00;6055478;23;20007;-69
2023/12/17 05:15:22;;;;;;;6.18;5.65;;;;;;;7.07;100.00;103228.06;6085526;23;20162;-69
2023/12/17 05:17:48;;;;;;;5.22;4.85;;;;;;;6.93;100.00;103207.97;6052498;23;20076;-71
2023/12/17 05:20:15;;;;;;;6.60;6.20;;;;;;;6.31;100.00;103093.81;6051893;23;20035;-69
2023/12/17 05:22:42;;;;;;;4.90;4.60;;;;;;;7.07;100.00;103231.53;6079382;23;20042;-71
2023/12/17 05:25:08;;;;;;;8.38;5.65;;;;;;;7.08;100.00;103230.69;6053284;23;20015;-69
2023/12/17 05:27:38;;;;;;;5.10;4.75;;;;;;;6.66;100.00;103158.31;6084515;23;20063;-69
2023/12/17 05:30:06;;;;;;;5.57;5.18;;;;;;;6.68;100.00;103167.88;6057507;23;20022;-68
2023/12/17 05:32:32;;;;;;;4.85;4.45;;;;;;;6.85;100.00;103207.09;6078484;23;20103;-69
2023/12/17 05:34:59;;;;;;;4.47;4.18;;;;;;;7.02;100.00;103222.81;6056163;23;20033;-69
2023/12/17 05:37:26;;;;;;;4.95;4.55;;;;;;;7.01;100.00;103214.97;6069845;23;20053;-69
2023/12/17 05:39:52;;;;;;;7.88;6.07;;;;;;;6.76;100.00;103158.34;6058381;23;20324;-68
2023/12/17 05:42:19;;;;;;;8.32;7.65;;;;;;;7.01;100.00;103194.97;6078971;23;20029;-69
2023/12/17 05:44:45;;;;;;;6.97;6.07;;;;;;;7.02;100.00;103193.25;6057994;23;20047;-69
2023/12/17 05:47:12;;;;;;;5.20;4.82;;;;;;;6.36;100.00;103079.06;6082569;23;20555;-69
2023/12/17 05:49:39;;;;;;;5.25;4.90;;;;;;;6.99;100.00;103189.72;6054909;23;20496;-69
2023/12/17 05:52:07;;;;;;;4.78;4.43;;;;;;;6.43;100.00;103085.16;6083895;23;20040;-69
2023/12/17 05:54:34;;;;;;;5.57;5.13;;;;;;;7.05;100.00;103181.03;6057731;23;20412;-69
2023/12/17 05:57:00;;;;;;;5.07;4.78;;;;;;;6.61;100.00;103113.06;6090967;23;20144;-70
2023/12/17 05:59:27;;;;;;;4.53;4.22;;;;;;;7.04;100.00;103178.44;6053716;23;20264;-70
2023/12/17 06:01:54;;;;;;;5.15;4.72;;;;;;;7.07;100.00;103173.22;6075926;23;20026;-69
2023/12/17 06:04:20;;;;;;;6.35;5.95;;;;;;;7.04;100.00;103168.88;6048124;23;20306;-69
2023/12/17 06:06:47;;;;;;;4.82;4.43;;;;;;;7.04;100.00;103166.25;6077634;23;20029;-68
2023/12/17 06:09:14;;;;;;;4.75;4.35;;;;;;;6.41;100.00;103058.22;6052366;23;20077;-69
2023/12/17 06:11:41;;;;;;;5.13;4.72;;;;;;;5.73;100.00;102940.63;6079613;23;20314;-69
2023/12/17 06:14:08;;;;;;;4.78;4.55;;;;;;;6.82;100.00;103125.31;6046768;23;20626;-69
2023/12/17 06:16:40;;;;;;;4.68;4.38;;;;;;;6.50;100.00;103079.13;6081823;23;20080;-68
2023/12/17 06:19:07;;;;;;;5.03;4.72;;;;;;;6.15;100.00;103020.78;6050356;23;20052;-69
2023/12/17 06:21:34;;;;;;;4.28;4.07;;;;;;;6.41;100.00;103066.03;6077785;23;20085;-69
2023/12/17 06:24:02;;;;;;;4.15;3.95;;;;;;;6.93;100.00;103152.31;6055461;23;20089;-70
2023/12/17 06:26:29;;;;;;;4.72;4.43;;;;;;;6.91;100.00;103156.66;6072232;23;20028;-70
2023/12/17 06:28:56;;;;;;;4.82;4.53;;;;;;;6.84;100.00;103144.47;6048208;23;20480;-69
2023/12/17 06:31:24;;;;;;;4.63;4.32;;;;;;;6.93;100.00;103157.53;6073739;23;20014;-69
2023/12/17 06:33:53;;;;;;;4.72;4.47;;;;;;;6.93;100.00;103171.44;6055304;23;20042;-69
2023/12/17 06:36:21;;;;;;;6.38;5.88;;;;;;;6.95;100.00;103147.94;6072427;23;20025;-69
2023/12/17 06:38:48;;;;;;;5.70;5.22;;;;;;;6.88;100.00;103127.94;6052712;23;20335;-69
2023/12/17 06:41:14;;;;;;;4.40;4.20;;;;;;;6.96;100.00;103145.34;6077593;23;20049;-70
2023/12/17 06:43:41;;;;;;;5.45;5.03;;;;;;;6.92;100.00;103142.75;6045393;23;20135;-69
2023/12/17 06:46:09;;;;;;;5.22;4.93;;;;;;;6.79;100.00;103129.66;6076796;23;20110;-69
2023/12/17 06:48:35;;;;;;;4.47;4.25;;;;;;;6.88;100.00;103146.22;6048507;23;21608;-69
2023/12/17 06:51:03;;;;;;;4.47;4.28;;;;;;;6.08;100.00;103015.53;6075520;23;20040;-69
2023/12/17 06:53:29;;;;;;;5.32;4.93;;;;;;;6.82;100.00;103151.41;6046519;23;20027;-69
2023/12/17 06:55:56;;;;;;;4.03;3.83;;;;;;;6.76;100.00;103129.63;6049441;23;20400;-68
2023/12/17 06:58:23;;;;;;;7.45;6.72;;;;;;;6.82;100.00;103139.22;6044822;23;20238;-70
2023/12/17 07:00:49;;;;;;;5.20;4.82;;;;;;;6.85;100.00;103148.81;6076464;23;20564;-69
2023/12/17 07:03:19;;;;;;;6.50;5.88;;;;;;;6.72;100.00;103133.09;6047471;23;20022;-69
2023/12/17 07:05:46;;;;;;;4.28;4.07;;;;;;;6.76;100.00;103140.06;6052977;23;20097;-69
2023/12/17 07:08:13;;;;;;;5.35;5.05;;;;;;;6.56;100.00;103107.84;6047006;23;20020;-70
2023/12/17 07:10:39;;;;;;;4.28;4.00;;;;;;;6.35;100.00;103093.84;6080543;23;20087;-69
2023/12/17 07:13:06;;;;;;;4.03;3.83;;;;;;;6.16;100.00;103047.69;6047235;23;20530;-69
2023/12/17 07:15:32;;;;;;;4.50;4.22;;;;;;;6.11;100.00;103046.81;6078346;23;20407;-69
2023/12/17 07:17:59;;;;;;;4.95;4.57;;;;;;;6.53;100.00;103111.28;6052658;23;20378;-69
2023/12/17 07:20:25;;;;;;;4.82;4.53;;;;;;;6.69;100.00;103120.03;6073351;23;20932;-68
2023/12/17 07:22:52;;;;;;;4.85;4.45;;;;;;;6.59;100.00;103115.66;6048733;23;19998;-69
2023/12/17 07:25:19;;;;;;;4.18;3.97;;;;;;;6.68;100.00;103118.31;6072931;23;20209;-69
2023/12/17 07:27:46;;;;;;;4.45;4.25;;;;;;;6.66;100.00;103104.38;6046612;23;20115;-70
2023/12/17 07:30:16;;;;;;;6.22;5.80;;;;;;;6.67;100.00;103108.72;6073849;23;20037;-69
2023/12/17 07:32:43;;;;;;;5.25;4.80;;;;;;;6.48;100.00;103070.44;6049527;23;20018;-69
2023/12/17 07:35:10;;;;;;;5.18;4.72;;;;;;;6.63;100.00;103101.75;6049684;23;20058;-69
2023/12/17 07:37:36;;;;;;;4.95;4.55;;;;;;;6.64;100.00;103100.03;6073344;23;20033;-71
2023/12/17 07:40:07;;;;;;;4.50;4.20;;;;;;;6.63;100.00;103093.06;6051823;23;20400;-71
2023/12/17 07:42:33;;;;;;;4.78;4.57;;;;;;;5.87;100.00;102965.00;6069854;23;20020;-69
2023/12/17 07:45:03;;;;;;;4.63;4.32;;;;;;;5.90;100.00;102949.38;6052369;23;20018;-67
2023/12/17 07:47:30;;;;;;;4.00;3.80;;;;;;;5.98;100.00;102962.47;6073876;23;20049;-67
2023/12/17 07:49:57;;;;;;;4.78;4.45;;;;;;;6.63;100.00;103073.06;6040740;23;20023;-68
2023/12/17 07:52:24;;;;;;;5.43;5.13;;;;;;;6.13;100.00;102985.09;6062935;23;20813;-67
2023/12/17 07:54:52;;;;;;;4.68;4.38;;;;;;;6.69;100.00;103070.47;6037769;23;20059;-70
2023/12/17 07:57:19;;;;;;;4.68;4.40;;;;;;;6.68;100.00;103060.91;6072237;23;20093;-69
2023/12/17 07:59:50;;;;;;;7.82;4.43;;;;;;;5.97;100.00;102927.72;6048417;23;20252;-70
2023/12/17 08:02:17;;;;;;;6.13;5.53;;;;;;;6.69;100.00;103046.97;6065862;23;20045;-68
2023/12/17 08:04:45;;;;;;;4.95;4.65;;;;;;;6.75;100.00;103054.81;6047533;23;20018;-71
2023/12/17 08:07:12;;;;;;;4.88;4.45;;;;;;;6.73;100.00;103060.91;6064275;23;20076;-69
2023/12/17 08:09:40;;;;;;;4.70;4.40;;;;;;;6.67;100.00;103038.28;6046740;23;20033;-70
2023/12/17 08:12:07;;;;;;;5.22;4.85;;;;;;;6.56;100.00;103017.38;6074042;23;20257;-68
2023/12/17 08:14:34;;;;;;;4.35;4.15;;;;;;;6.79;100.00;103047.84;6038917;23;20537;-68
2023/12/17 08:17:01;;;;;;;6.05;5.28;;;;;;;6.87;100.00;103051.34;6075280;23;20096;-68
2023/12/17 08:19:27;;;;;;;4.53;4.22;;;;;;;6.90;100.00;103046.16;6043609;23;20470;-69
2023/12/17 08:21:57;;;;;;;5.32;4.93;;;;;;;6.29;100.00;102952.13;6073805;23;20483;-70
2023/12/17 08:24:24;;;;;;;6.70;6.20;;;;;;;6.23;100.00;102926.03;6025118;23;20332;-68
2023/12/17 08:26:54;;;;;;;5.05;4.75;;;;;;;6.86;100.00;103033.97;6074487;23;20448;-70
2023/12/17 08:29:21;;;;;;;4.63;4.38;;;;;;;6.82;100.00;103033.97;6054164;23;20026;-70
2023/12/17 08:31:47;;;;;;;6.22;5.13;;;;;;;6.82;100.00;103045.28;6053821;23;20021;-68
2023/12/17 08:34:14;;;;;;;9.40;8.32;;;;;;;6.90;100.00;103053.13;6051183;23;20046;-70
2023/12/17 08:36:41;;;;;;;6.60;5.95;;;;;;;5.74;100.00;102843.38;6050204;23;20036;-70
2023/12/17 08:39:11;;;;;;;5.03;4.72;;;;;;;6.99;100.00;103045.28;6049599;23;20046;-70
2023/12/17 08:41:38;;;;;;;5.53;5.00;;;;;;;6.43;100.00;102934.75;6074617;23;20168;-69
2023/12/17 08:44:08;;;;;;;5.53;5.03;;;;;;;6.63;100.00;102963.47;6044784;23;20034;-70
2023/12/17 08:46:34;;;;;;;6.80;6.07;;;;;;;7.10;100.00;103025.28;6078593;23;20025;-68
2023/12/17 08:49:03;;;;;;;6.13;5.63;;;;;;;7.19;100.00;103032.22;6048828;23;20026;-68
2023/12/17 08:51:29;;;;;;;5.80;5.32;;;;;;;7.21;100.00;103034.84;6077926;23;20030;-69
2023/12/17 08:53:56;;;;;;;9.85;6.07;;;;;;;7.27;100.00;103027.00;6027236;23;20048;-69
2023/12/17 08:56:22;;;;;;;7.65;6.97;;;;;;;7.23;100.00;103014.81;6069755;23;20013;-70
2023/12/17 08:58:49;;;;;;;5.05;4.65;;;;;;;7.41;100.00;103019.16;6052302;23;20393;-69
2023/12/17 09:01:17;;;;;;;6.32;5.85;;;;;;;7.33;100.00;102999.13;6050980;23;20101;-70
2023/12/17 09:03:44;;;;;;;6.30;5.80;;;;;;;7.42;100.00;103007.81;6034458;23;20043;-70
2023/12/17 09:06:12;;;;;;;8.00;7.20;;;;;;;6.89;100.00;102910.41;6053971;23;20096;-70
2023/12/17 09:08:38;;;;;;;8.10;6.03;;;;;;;7.09;100.00;102931.25;6046601;23;20075;-70
2023/12/17 09:11:07;;;;;;;9.00;6.00;;;;;;;7.58;100.00;103004.31;6075639;23;20516;-70
2023/12/17 09:13:34;;;;;;;6.35;5.75;;;;;;;7.14;100.00;102927.78;6033770;23;20119;-71
2023/12/17 09:16:00;;;;;;;5.40;4.70;;;;;;;7.68;100.00;102999.94;6080184;23;20030;-68
2023/12/17 09:18:27;;;;;;;5.72;5.32;;;;;;;7.73;100.00;102995.53;6038586;23;20573;-69
2023/12/17 09:20:53;;;;;;;4.80;4.50;;;;;;;7.78;100.00;102991.19;6058862;23;20026;-68
2023/12/17 09:23:20;;;;;;;5.82;5.38;;;;;;;7.63;100.00;102957.25;6052680;23;20525;-70
2023/12/17 09:25:47;;;;;;;6.25;5.75;;;;;;;7.29;100.00;102907.72;6062967;23;20516;-69
2023/12/17 09:28:14;;;;;;;7.13;6.57;;;;;;;7.77;100.00;102972.00;6048397;23;20071;-69
2023/12/17 09:30:40;;;;;;;5.70;4.97;;;;;;;7.82;100.00;102989.41;6058513;23;20084;-70
2023/12/17 09:33:07;;;;;;;5.22;4.93;;;;;;;7.67;100.00;102953.75;6036456;23;20027;-70
2023/12/17 09:35:36;;;;;;;5.68;5.28;;;;;;;7.59;100.00;102933.72;6080226;23;20052;-70
2023/12/17 09:38:04;;;;;;;5.50;5.10;;;;;;;7.83;100.00;102976.34;6050319;23;20426;-71
2023/12/17 09:40:37;;;;;;;5.70;5.28;;;;;;;7.32;100.00;102898.13;6063726;23;20026;-70
2023/12/17 09:43:04;;;;;;;5.35;4.95;;;;;;;7.86;100.00;102984.19;6035830;23;20022;-70
2023/12/17 09:45:30;;;;;;;6.53;5.97;;;;;;;7.86;100.00;102978.06;6056729;23;20089;-70
2023/12/17 09:47:57;;;;;;;5.47;5.13;;;;;;;7.67;100.00;102944.16;6049428;23;20578;-69
2023/12/17 09:50:27;;;;;;;6.95;6.40;;;;;;;7.92;100.00;102976.31;6065276;23;20242;-70
2023/12/17 09:52:54;;;;;;;5.57;5.18;;;;;;;7.68;100.00;102921.53;6049784;23;20030;-70
2023/12/17 09:55:21;;;;;;;6.13;5.63;;;;;;;7.89;100.00;102958.00;6063478;23;20143;-72
2023/12/17 09:57:48;;;;;;;6.07;5.57;;;;;;;7.95;100.00;102954.50;6011385;23;20209;-70
2023/12/17 10:00:15;;;;;;;8.48;7.75;;;;;;;7.72;100.00;102905.81;6066234;23;20292;-70
2023/12/17 10:02:41;;;;;;;5.55;5.25;;;;;;;7.98;100.00;102941.44;6044019;23;20019;-70
2023/12/17 10:05:08;;;;;;;5.43;5.00;;;;;;;7.46;100.00;102858.91;6064286;23;20474;-71
2023/12/17 10:07:37;;;;;;;6.10;4.95;;;;;;;7.77;100.00;102908.41;6043840;23;20022;-71
2023/12/17 10:10:06;;;;;;;7.13;6.53;;;;;;;7.61;100.00;102864.94;6084019;23;20074;-69
2023/12/17 10:12:33;;;;;;;5.90;5.43;;;;;;;7.16;100.00;102798.06;6051204;23;20028;-70
2023/12/17 10:15:00;;;;;;;5.50;5.10;;;;;;;8.09;100.00;102944.81;6086902;23;20014;-70
2023/12/17 10:17:26;;;;;;;8.75;6.43;;;;;;;8.15;100.00;102936.09;6062883;23;20034;-71
2023/12/17 10:19:53;;;;;;;5.90;5.43;;;;;;;8.19;100.00;102919.50;6083614;23;20063;-71
2023/12/17 10:22:20;;;;;;;8.05;7.28;;;;;;;7.78;100.00;102829.97;6023631;23;20034;-69
2023/12/17 10:24:48;;;;;;;5.03;4.72;;;;;;;7.58;100.00;102775.22;6075969;23;20058;-69
2023/12/17 10:27:16;;;;;;;5.00;4.70;;;;;;;8.11;100.00;102843.69;6049490;23;20328;-70
2023/12/17 10:29:46;;;;;;;6.22;5.72;;;;;;;7.72;100.00;102749.00;6054089;23;20157;-70
2023/12/17 10:32:14;;;;;;;7.53;6.70;;;;;;;8.24;100.00;102830.50;6072464;23;20084;-71
2023/12/17 10:34:40;;;;;;;6.10;5.60;;;;;;;7.66;100.00;102756.00;6044341;23;20493;-69
2023/12/17 10:37:10;;;;;;;6.15;5.65;;;;;;;8.22;100.00;102848.88;6079514;23;20046;-70
2023/12/17 10:39:40;;;;;;;5.40;5.03;;;;;;;8.04;100.00;102810.63;6053223;23;20052;-70
2023/12/17 10:42:08;;;;;;;5.28;4.97;;;;;;;7.81;100.00;102765.50;6080552;23;20448;-71
2023/12/17 10:44:36;;;;;;;6.15;5.70;;;;;;;7.43;100.00;102709.13;6053000;23;20041;-70
2023/12/17 10:47:04;;;;;;;5.45;5.05;;;;;;;8.00;100.00;102814.16;6082133;23;20076;-69
2023/12/17 10:49:30;;;;;;;5.55;5.15;;;;;;;7.16;100.00;102674.50;6038080;23;20015;-71
2023/12/17 10:52:00;;;;;;;6.47;5.88;;;;;;;8.10;100.00;102851.56;6079580;23;20233;-70
2023/12/17 10:54:27;;;;;;;6.70;6.10;;;;;;;8.12;100.00;102842.81;6042766;23;20131;-70
2023/12/17 10:57:00;;;;;;;6.90;6.30;;;;;;;8.17;100.00;102846.25;6077140;23;20030;-72
2023/12/17 10:59:32;;;;;;;5.88;5.35;;;;;;;8.17;100.00;102845.41;6051969;23;20030;-71
2023/12/17 11:02:11;;;;;;;6.35;5.93;;;;;;;6.77;100.00;102600.75;6056544;23;20479;-69
2023/12/17 11:04:45;;;;;;;6.32;5.80;;;;;;;8.05;100.00;102801.91;6051923;23;20248;-70
2023/12/17 11:07:16;;;;;;;5.20;4.80;;;;;;;8.01;100.00;102808.03;6071540;23;20384;-69
2023/12/17 11:10:00;;;;;;;5.50;5.15;;;;;;;8.08;100.00;102804.50;6053618;23;20465;-70
2023/12/17 11:12:29;;;;;;;8.38;6.43;;;;;;;7.42;100.00;102671.72;6072637;23;20369;-70
2023/12/17 11:14:58;;;;;;;7.00;6.35;;;;;;;7.95;100.00;102755.78;6042292;23;20113;-71
2023/12/17 11:17:26;;;;;;;4.57;4.30;;;;;;;7.98;100.00;102772.31;6077777;23;20022;-70
2023/12/17 11:19:53;;;;;;;7.05;5.38;;;;;;;7.10;100.00;102656.25;6049953;23;20080;-71
2023/12/17 11:22:21;;;;;;;6.90;6.40;;;;;;;7.85;100.00;102769.81;6062401;23;20020;-69
2023/12/17 11:24:49;;;;;;;5.28;4.80;;;;;;;7.47;100.00;102705.63;6046839;23;20080;-70
2023/12/17 11:27:19;;;;;;;4.78;4.47;;;;;;;7.84;100.00;102748.03;6072705;23;20093;-70
2023/12/17 11:29:46;;;;;;;4.97;4.60;;;;;;;7.58;100.00;102712.50;6051530;23;20018;-71
2023/12/17 11:32:13;;;;;;;5.97;5.57;;;;;;;7.85;100.00;102755.00;6060496;23;20334;-71
2023/12/17 11:34:41;;;;;;;4.70;4.50;;;;;;;7.96;100.00;102765.38;6028498;23;20018;-70
2023/12/17 11:37:08;;;;;;;4.50;4.30;;;;;;;8.03;100.00;102740.03;6073915;23;20084;-70